createdAt,value
2018-12-03T00:02:15.394Z,87.21
2018-12-03T00:04:44.797Z,87.24
2018-12-03T00:07:14.167Z,86.94
2018-12-03T00:09:43.602Z,87.48
2018-12-03T00:12:13.016Z,87.49
2018-12-03T00:14:42.468Z,87.47
2018-12-03T00:17:11.912Z,87.73
2018-12-03T00:19:41.403Z,87.67
2018-12-03T00:22:10.885Z,87.79
2018-12-03T00:24:40.324Z,87.94
2018-12-03T00:27:09.804Z,88.03
2018-12-03T00:29:40.508Z,88.32
2018-12-03T00:32:11.345Z,87.43
2018-12-03T00:34:41.772Z,87.22
2018-12-03T00:37:12.415Z,87.21
2018-12-03T00:39:43.032Z,87.52
2018-12-03T00:42:13.459Z,87.90
2018-12-03T00:44:43.007Z,87.05
2018-12-03T00:47:12.448Z,87.39
2018-12-03T00:49:41.828Z,86.77
2018-12-03T00:52:11.247Z,86.10
2018-12-03T00:54:40.676Z,86.03
2018-12-03T00:57:10.056Z,85.84
2018-12-03T00:59:40.513Z,85.83
2018-12-03T01:02:16.057Z,85.03
2018-12-03T01:04:47.112Z,85.15
2018-12-03T01:07:17.741Z,84.78
2018-12-03T01:09:48.371Z,84.58
2018-12-03T01:12:20.131Z,84.09
2018-12-03T01:14:49.634Z,83.79
2018-12-03T01:17:19.111Z,83.53
2018-12-03T01:19:48.468Z,83.61
2018-12-03T01:22:17.867Z,83.04
2018-12-03T01:24:47.342Z,83.01
2018-12-03T01:27:16.858Z,82.91
2018-12-03T01:29:46.318Z,82.77
2018-12-03T01:32:15.818Z,82.23
2018-12-03T01:34:45.197Z,82.14
2018-12-03T01:37:14.642Z,81.88
2018-12-03T01:39:44.033Z,81.70
2018-12-03T01:42:13.566Z,80.97
2018-12-03T01:44:44.421Z,80.82
2018-12-03T01:47:15.155Z,80.56
2018-12-03T01:49:44.524Z,79.97
2018-12-03T01:52:14.069Z,80.45
2018-12-03T01:54:43.533Z,80.78
2018-12-03T01:57:13.066Z,81.23
2018-12-03T01:59:42.806Z,80.41
2018-12-03T02:02:12.262Z,80.74
2018-12-03T02:04:41.777Z,80.49
2018-12-03T02:07:11.181Z,80.28
2018-12-03T02:09:40.597Z,80.19
2018-12-03T02:12:10.094Z,79.53
2018-12-03T02:14:39.598Z,80.23
2018-12-03T02:17:09.104Z,79.67
2018-12-03T02:19:39.652Z,79.94
2018-12-03T02:22:10.181Z,79.72
2018-12-03T02:24:40.915Z,79.14
2018-12-03T02:27:11.648Z,79.21
2018-12-03T02:29:41.123Z,78.47
2018-12-03T02:32:10.607Z,78.43
2018-12-03T02:34:40.008Z,78.45
2018-12-03T02:37:09.414Z,77.94
2018-12-03T02:39:38.861Z,77.92
2018-12-03T02:42:08.262Z,77.69
2018-12-03T02:44:37.772Z,78.14
2018-12-03T02:47:07.152Z,78.35
2018-12-03T02:49:36.573Z,78.00
2018-12-03T02:52:06.289Z,78.20
2018-12-03T02:54:35.681Z,78.68
2018-12-03T02:57:05.033Z,79.15
2018-12-03T02:59:35.633Z,79.95
2018-12-03T03:02:07.096Z,80.86
2018-12-03T03:04:37.970Z,81.53
2018-12-03T03:07:08.554Z,81.94
2018-12-03T03:09:37.967Z,82.72
2018-12-03T03:12:07.559Z,82.88
2018-12-03T03:14:36.940Z,82.86
2018-12-03T03:17:07.079Z,82.66
2018-12-03T03:19:36.419Z,82.79
2018-12-03T03:22:06.652Z,83.36
2018-12-03T03:24:36.079Z,83.09
2018-12-03T03:27:05.493Z,83.05
2018-12-03T03:29:34.845Z,83.14
2018-12-03T03:32:04.234Z,83.51
2018-12-03T03:34:33.674Z,83.16
2018-12-03T03:37:03.069Z,83.73
2018-12-03T03:39:34.998Z,83.34
2018-12-03T03:42:06.443Z,82.69
2018-12-03T03:44:35.896Z,83.29
2018-12-03T03:47:05.377Z,82.95
2018-12-03T03:49:34.744Z,82.97
2018-12-03T03:52:04.080Z,82.11
2018-12-03T03:54:33.467Z,82.78
2018-12-03T03:57:02.842Z,82.30
2018-12-03T03:59:32.247Z,82.79
2018-12-03T04:02:01.611Z,82.21
2018-12-03T04:04:31.039Z,81.93
2018-12-03T04:07:00.427Z,82.12
2018-12-03T04:09:29.840Z,82.33
2018-12-03T04:11:59.333Z,82.08
2018-12-03T04:14:29.920Z,81.77
2018-12-03T04:16:59.326Z,81.74
2018-12-03T04:19:28.719Z,81.67
2018-12-03T04:21:58.071Z,81.68
2018-12-03T04:24:27.474Z,81.57
2018-12-03T04:26:56.870Z,81.92
2018-12-03T04:29:26.217Z,81.67
2018-12-03T04:31:55.956Z,81.52
2018-12-03T04:34:25.307Z,81.61
2018-12-03T04:36:54.739Z,81.95
2018-12-03T04:39:24.293Z,81.54
2018-12-03T04:41:53.722Z,81.37
2018-12-03T04:44:23.245Z,81.47
2018-12-03T04:46:53.803Z,81.12
2018-12-03T04:49:23.200Z,81.06
2018-12-03T04:51:52.674Z,81.14
2018-12-03T04:54:22.087Z,80.97
2018-12-03T04:56:51.605Z,81.08
2018-12-03T04:59:21.059Z,80.59
2018-12-03T05:01:50.507Z,80.55
2018-12-03T05:04:19.929Z,80.58
2018-12-03T05:06:49.406Z,80.15
2018-12-03T05:09:19.021Z,80.19
2018-12-03T05:11:48.704Z,80.04
2018-12-03T05:14:18.336Z,80.33
2018-12-03T05:16:48.015Z,80.07
2018-12-03T05:19:20.769Z,79.34
2018-12-03T05:21:52.225Z,80.20
2018-12-03T05:24:21.934Z,80.31
2018-12-03T05:26:51.696Z,80.39
2018-12-03T05:29:21.463Z,80.40
2018-12-03T05:31:51.158Z,80.33
2018-12-03T05:34:20.779Z,80.28
2018-12-03T05:36:50.414Z,80.14
2018-12-03T05:39:20.161Z,80.25
2018-12-03T05:41:49.796Z,80.08
2018-12-03T05:44:19.407Z,80.29
2018-12-03T05:46:49.065Z,79.85
2018-12-03T05:49:18.593Z,79.86
2018-12-03T05:51:48.221Z,79.87
2018-12-03T05:54:19.273Z,79.87
2018-12-03T05:56:48.954Z,79.96
2018-12-03T05:59:18.592Z,80.02
2018-12-03T06:01:48.141Z,80.64
2018-12-03T06:04:17.696Z,79.78
2018-12-03T06:06:53.929Z,79.87
2018-12-03T06:09:23.540Z,80.23
2018-12-03T06:11:53.060Z,79.83
2018-12-03T06:14:22.642Z,80.33
2018-12-03T06:16:52.213Z,80.29
2018-12-03T06:19:22.414Z,80.12
2018-12-03T06:21:55.908Z,79.98
2018-12-03T06:24:25.766Z,80.43
2018-12-03T06:26:57.084Z,79.90
2018-12-03T06:29:26.733Z,80.33
2018-12-03T06:31:56.415Z,80.15
2018-12-03T06:34:26.054Z,80.21
2018-12-03T06:36:55.660Z,80.05
2018-12-03T06:39:25.194Z,80.24
2018-12-03T06:41:54.798Z,80.48
2018-12-03T06:44:24.430Z,80.07
2018-12-03T06:46:53.987Z,80.45
2018-12-03T06:49:24.098Z,80.38
2018-12-03T06:51:53.805Z,79.84
2018-12-03T06:54:23.356Z,80.41
2018-12-03T06:56:52.948Z,80.12
2018-12-03T06:59:25.466Z,79.83
2018-12-03T07:01:57.539Z,80.03
2018-12-03T07:04:27.123Z,80.64
2018-12-03T07:06:56.822Z,80.20
2018-12-03T07:09:26.400Z,80.25
2018-12-03T07:11:56.017Z,79.68
2018-12-03T07:14:25.602Z,79.13
2018-12-03T07:16:55.227Z,79.23
2018-12-03T07:19:24.865Z,79.03
2018-12-03T07:21:54.486Z,79.09
2018-12-03T07:24:24.103Z,79.17
2018-12-03T07:26:53.740Z,79.77
2018-12-03T07:29:23.324Z,78.92
2018-12-03T07:31:53.134Z,79.63
2018-12-03T07:34:24.393Z,79.03
2018-12-03T07:36:55.536Z,79.47
2018-12-03T07:39:26.882Z,79.68
2018-12-03T07:41:58.228Z,79.68
2018-12-03T07:44:29.484Z,79.74
2018-12-03T07:47:00.627Z,79.86
2018-12-03T07:49:31.867Z,79.46
2018-12-03T07:52:03.318Z,79.46
2018-12-03T07:54:35.688Z,79.12
2018-12-03T07:57:06.849Z,79.08
2018-12-03T07:59:36.527Z,78.78
2018-12-03T08:02:06.290Z,78.35
2018-12-03T08:04:35.884Z,78.47
2018-12-03T08:07:06.449Z,78.13
2018-12-03T08:09:36.045Z,77.96
2018-12-03T08:12:05.876Z,77.27
2018-12-03T08:14:35.570Z,77.58
2018-12-03T08:17:05.251Z,77.42
2018-12-03T08:19:34.825Z,77.56
2018-12-03T08:22:04.525Z,77.24
2018-12-03T08:24:34.072Z,77.09
2018-12-03T08:27:03.862Z,77.15
2018-12-03T08:29:33.526Z,76.61
2018-12-03T08:32:03.240Z,76.84
2018-12-03T08:34:32.848Z,76.75
2018-12-03T08:37:02.456Z,76.47
2018-12-03T08:39:32.084Z,76.42
2018-12-03T08:42:01.652Z,76.28
2018-12-03T08:44:31.913Z,75.74
2018-12-03T08:47:09.495Z,76.02
2018-12-03T08:49:39.063Z,75.98
2018-12-03T08:52:12.956Z,75.39
2018-12-03T08:54:42.509Z,75.79
2018-12-03T08:57:12.634Z,75.69
2018-12-03T08:59:42.206Z,75.42
2018-12-03T09:02:11.866Z,75.00
2018-12-03T09:04:41.566Z,75.23
2018-12-03T09:07:11.146Z,75.15
2018-12-03T09:09:40.799Z,75.58
2018-12-03T09:12:10.974Z,74.96
2018-12-03T09:14:40.626Z,75.15
2018-12-03T09:17:10.544Z,74.02
2018-12-03T09:19:40.181Z,74.33
2018-12-03T09:22:09.765Z,74.63
2018-12-03T09:24:39.351Z,73.62
2018-12-03T09:27:09.159Z,74.18
2018-12-03T09:29:38.773Z,74.33
2018-12-03T09:32:08.467Z,74.19
2018-12-03T09:34:38.095Z,74.32
2018-12-03T09:37:07.802Z,74.74
2018-12-03T09:39:37.474Z,74.20
2018-12-03T09:42:07.658Z,74.11
2018-12-03T09:44:37.408Z,73.83
2018-12-03T09:47:07.072Z,73.73
2018-12-03T09:49:36.659Z,74.19
2018-12-03T09:52:06.719Z,73.75
2018-12-03T09:54:36.316Z,73.84
2018-12-03T09:57:06.088Z,74.00
2018-12-03T09:59:35.631Z,72.84
2018-12-03T10:02:05.999Z,72.74
2018-12-03T10:04:41.965Z,72.80
2018-12-03T10:07:18.141Z,72.26
2018-12-03T10:09:47.721Z,71.60
2018-12-03T10:12:18.290Z,71.67
2018-12-03T10:14:46.988Z,71.59
2018-12-03T10:17:16.567Z,70.98
2018-12-03T10:19:50.259Z,71.25
2018-12-03T10:22:50.693Z,70.54
2018-12-03T10:25:18.967Z,70.88
2018-12-03T10:27:47.331Z,70.36
2018-12-03T10:30:15.700Z,69.21
2018-12-03T10:32:43.971Z,69.59
2018-12-03T10:35:12.339Z,69.32
2018-12-03T10:37:40.663Z,69.42
2018-12-03T10:40:10.316Z,69.32
2018-12-03T10:42:38.603Z,69.47
2018-12-03T10:45:09.753Z,68.51
2018-12-03T10:47:38.007Z,68.70
2018-12-03T10:50:09.883Z,68.89
2018-12-03T10:52:38.161Z,67.95
2018-12-03T10:55:07.623Z,68.43
2018-12-03T10:57:36.183Z,68.85
2018-12-03T11:00:09.852Z,68.55
2018-12-03T11:06:15.591Z,68.29
2018-12-03T11:08:44.005Z,68.84
2018-12-03T11:11:12.359Z,69.17
2018-12-03T11:13:40.735Z,69.20
2018-12-03T11:16:09.109Z,68.96
2018-12-03T11:18:38.993Z,68.32
2018-12-03T11:21:07.312Z,69.68
2018-12-03T11:23:35.606Z,68.87
2018-12-03T11:26:04.784Z,69.31
2018-12-03T11:28:34.142Z,68.90
2018-12-03T11:31:02.403Z,68.34
2018-12-03T11:33:30.663Z,67.79
2018-12-03T11:35:58.911Z,68.37
2018-12-03T11:38:27.261Z,67.51
2018-12-03T11:40:55.568Z,68.60
2018-12-03T11:43:23.819Z,67.53
2018-12-03T11:45:52.441Z,67.34
2018-12-03T11:48:20.922Z,67.58
2018-12-03T11:50:49.244Z,67.82
2018-12-03T11:53:18.364Z,67.74
2018-12-03T11:55:46.937Z,67.48
2018-12-03T11:58:15.253Z,66.87
2018-12-03T12:00:43.517Z,66.88
2018-12-03T12:03:11.934Z,66.77
2018-12-03T12:05:40.205Z,66.95
2018-12-03T12:08:08.513Z,67.01
2018-12-03T12:10:36.762Z,66.45
2018-12-03T12:13:05.280Z,66.19
2018-12-03T12:15:33.638Z,66.24
2018-12-03T12:18:01.874Z,66.38
2018-12-03T12:20:30.118Z,65.86
2018-12-03T12:22:58.372Z,65.97
2018-12-03T12:25:26.634Z,66.55
2018-12-03T12:27:54.891Z,66.16
2018-12-03T12:30:23.156Z,65.71
2018-12-03T12:32:51.407Z,65.57
2018-12-03T12:35:19.679Z,65.40
2018-12-03T12:37:47.930Z,64.89
2018-12-03T12:40:16.188Z,65.08
2018-12-03T12:42:44.450Z,65.19
2018-12-03T12:45:13.584Z,64.64
2018-12-03T12:47:41.893Z,65.02
2018-12-03T12:50:10.505Z,65.04
2018-12-03T12:52:38.753Z,65.36
2018-12-03T12:55:07.127Z,65.88
2018-12-03T12:57:35.435Z,65.27
2018-12-03T13:00:04.019Z,65.70
2018-12-03T13:02:32.286Z,65.39
2018-12-03T13:05:00.570Z,65.77
2018-12-03T13:07:28.814Z,66.24
2018-12-03T13:09:58.150Z,65.87
2018-12-03T13:12:26.407Z,66.56
2018-12-03T13:14:54.666Z,66.23
2018-12-03T13:17:22.926Z,66.43
2018-12-03T13:19:51.173Z,65.82
2018-12-03T13:22:22.358Z,66.22
2018-12-03T13:24:50.667Z,66.32
2018-12-03T13:27:18.924Z,65.84
2018-12-03T13:29:47.162Z,66.09
2018-12-03T13:32:15.431Z,66.36
2018-12-03T13:34:43.700Z,67.22
2018-12-03T13:37:11.941Z,66.64
2018-12-03T13:39:40.194Z,67.27
2018-12-03T13:42:08.439Z,66.64
2018-12-03T13:44:36.675Z,66.91
2018-12-03T13:47:05.829Z,67.02
2018-12-03T13:49:34.223Z,67.39
2018-12-03T13:52:02.527Z,67.42
2018-12-03T13:54:30.788Z,67.06
2018-12-03T13:56:59.059Z,66.74
2018-12-03T14:02:24.372Z,66.60
2018-12-03T14:04:52.609Z,66.68
2018-12-03T14:07:21.217Z,66.79
2018-12-03T14:09:49.516Z,66.50
2018-12-03T14:12:18.144Z,67.05
2018-12-03T14:14:46.413Z,66.37
2018-12-03T14:17:14.620Z,67.06
2018-12-03T14:19:43.026Z,66.94
2018-12-03T14:22:11.344Z,66.49
2018-12-03T14:24:39.603Z,66.71
2018-12-03T14:27:07.896Z,66.89
2018-12-03T14:29:36.184Z,66.52
2018-12-03T14:32:05.008Z,66.75
2018-12-03T14:34:33.240Z,67.02
2018-12-03T14:37:01.489Z,66.97
2018-12-03T14:39:29.770Z,67.41
2018-12-03T14:41:57.999Z,67.29
2018-12-03T14:44:26.296Z,67.32
2018-12-03T14:46:54.652Z,67.93
2018-12-03T14:49:22.892Z,67.63
2018-12-03T14:51:51.151Z,67.90
2018-12-03T14:54:19.384Z,68.51
2018-12-03T14:56:47.674Z,67.66
2018-12-03T14:59:15.888Z,67.71
2018-12-03T15:01:44.108Z,67.59
2018-12-03T15:04:12.333Z,67.84
2018-12-03T15:06:40.590Z,68.25
2018-12-03T15:09:08.872Z,67.59
2018-12-03T15:11:37.097Z,68.09
2018-12-03T15:14:05.503Z,67.57
2018-12-03T15:16:33.851Z,68.33
2018-12-03T15:19:02.141Z,68.47
2018-12-03T15:21:30.342Z,68.33
2018-12-03T15:23:58.555Z,68.14
2018-12-03T15:26:26.875Z,68.23
2018-12-03T15:28:55.235Z,68.07
2018-12-03T15:31:23.487Z,68.35
2018-12-03T15:33:51.743Z,68.23
2018-12-03T15:36:20.003Z,68.06
2018-12-03T15:38:48.427Z,68.08
2018-12-03T15:41:16.682Z,68.60
2018-12-03T15:43:44.895Z,67.94
2018-12-03T15:46:13.174Z,67.81
2018-12-03T15:48:41.468Z,68.00
2018-12-03T15:51:09.788Z,67.48
2018-12-03T15:53:38.011Z,67.84
2018-12-03T15:56:06.344Z,67.90
2018-12-03T15:58:34.567Z,68.55
2018-12-03T16:01:02.809Z,68.33
2018-12-03T16:03:31.076Z,68.44
2018-12-03T16:05:59.383Z,67.83
2018-12-03T16:08:27.606Z,67.96
2018-12-03T16:10:55.946Z,68.67
2018-12-03T16:13:24.224Z,68.58
2018-12-03T16:15:52.468Z,68.82
2018-12-03T16:18:20.688Z,69.14
2018-12-03T16:20:49.038Z,69.04
2018-12-03T16:23:17.270Z,69.51
2018-12-03T16:25:45.568Z,69.18
2018-12-03T16:28:13.881Z,69.08
2018-12-03T16:30:42.119Z,69.42
2018-12-03T16:33:10.472Z,69.14
2018-12-03T16:35:38.744Z,69.64
2018-12-03T16:38:07.096Z,68.99
2018-12-03T16:40:35.601Z,69.40
2018-12-03T16:43:03.992Z,68.88
2018-12-03T16:45:32.449Z,69.08
2018-12-03T16:48:00.699Z,69.57
2018-12-03T16:50:28.938Z,69.28
2018-12-03T16:52:57.281Z,69.21
2018-12-03T16:55:25.503Z,69.36
2018-12-03T16:57:53.811Z,68.86
2018-12-03T17:00:22.198Z,68.85
2018-12-03T17:02:50.436Z,69.00
2018-12-03T17:05:18.741Z,68.60
2018-12-03T17:07:47.106Z,68.59
2018-12-03T17:10:25.991Z,68.58
2018-12-03T17:12:54.207Z,68.52
2018-12-03T17:15:22.479Z,68.84
2018-12-03T17:17:50.699Z,69.00
2018-12-03T17:20:19.244Z,68.54
2018-12-03T17:22:47.621Z,68.78
2018-12-03T17:25:15.899Z,68.18
2018-12-03T17:27:44.289Z,68.37
2018-12-03T17:30:12.667Z,68.71
2018-12-03T17:32:41.906Z,68.08
2018-12-03T17:35:10.243Z,67.92
2018-12-03T17:37:38.614Z,68.77
2018-12-03T17:40:07.916Z,67.34
2018-12-03T17:42:36.236Z,67.85
2018-12-03T17:45:06.573Z,67.57
2018-12-03T17:47:35.956Z,68.17
2018-12-03T17:50:04.767Z,67.87
2018-12-03T17:52:32.985Z,67.74
2018-12-03T17:55:01.203Z,68.19
2018-12-03T17:57:29.525Z,68.36
2018-12-03T17:59:57.741Z,68.65
2018-12-03T18:02:26.033Z,69.05
2018-12-03T18:04:54.297Z,68.98
2018-12-03T18:07:22.547Z,69.33
2018-12-03T18:09:51.066Z,69.06
2018-12-03T18:12:19.392Z,68.87
2018-12-03T18:14:47.779Z,69.18
2018-12-03T18:17:16.019Z,68.89
2018-12-03T18:19:44.234Z,69.34
2018-12-03T18:22:12.536Z,69.22
2018-12-03T18:24:40.791Z,69.20
2018-12-03T18:27:09.056Z,69.39
2018-12-03T18:29:37.334Z,68.76
2018-12-03T18:32:05.658Z,69.10
2018-12-03T18:34:33.900Z,68.16
2018-12-03T18:37:02.262Z,68.66
2018-12-03T18:39:30.524Z,66.06
2018-12-03T18:41:58.820Z,65.83
2018-12-03T18:44:27.119Z,65.49
2018-12-03T18:46:55.476Z,65.37
2018-12-03T18:49:23.727Z,64.89
2018-12-03T18:51:52.075Z,64.20
2018-12-03T18:54:20.382Z,64.75
2018-12-03T18:56:48.663Z,63.89
2018-12-03T18:59:16.948Z,63.92
2018-12-03T19:01:45.372Z,63.35
2018-12-03T19:04:15.557Z,63.36
2018-12-03T19:06:43.808Z,63.49
2018-12-03T19:09:12.919Z,63.22
2018-12-03T19:11:41.156Z,62.94
2018-12-03T19:14:09.400Z,62.16
2018-12-03T19:16:37.750Z,62.84
2018-12-03T19:19:06.092Z,62.31
2018-12-03T19:21:34.338Z,62.42
2018-12-03T19:24:02.711Z,63.06
2018-12-03T19:26:31.170Z,62.56
2018-12-03T19:28:59.408Z,62.59
2018-12-03T19:31:27.784Z,63.69
2018-12-03T19:33:58.084Z,62.61
2018-12-03T19:36:26.605Z,62.34
2018-12-03T19:38:55.091Z,61.53
2018-12-03T19:41:23.379Z,62.38
2018-12-03T19:43:51.652Z,62.30
2018-12-03T19:46:20.145Z,61.56
2018-12-03T19:48:48.467Z,62.03
2018-12-03T19:51:17.706Z,61.72
2018-12-03T19:53:45.996Z,61.54
2018-12-03T19:56:14.313Z,61.65
2018-12-03T19:58:42.572Z,61.43
2018-12-03T20:01:10.817Z,61.36
2018-12-03T20:03:39.130Z,60.94
2018-12-03T20:06:07.352Z,60.62
2018-12-03T20:08:35.593Z,60.93
2018-12-03T20:11:05.861Z,63.02
2018-12-03T20:13:34.140Z,60.01
2018-12-03T20:16:02.618Z,61.08
2018-12-03T20:18:30.877Z,59.85
2018-12-03T20:20:59.188Z,59.35
2018-12-03T20:23:27.472Z,59.99
2018-12-03T20:25:55.805Z,60.81
2018-12-03T20:28:24.242Z,62.94
2018-12-03T20:30:57.109Z,66.01
2018-12-03T20:33:25.574Z,68.37
2018-12-03T20:35:54.315Z,69.97
2018-12-03T20:38:22.742Z,71.92
2018-12-03T20:40:51.232Z,74.54
2018-12-03T20:43:19.501Z,75.10
2018-12-03T20:45:53.520Z,76.33
2018-12-03T20:48:22.824Z,77.11
2018-12-03T20:50:51.183Z,78.11
2018-12-03T20:53:19.461Z,78.95
2018-12-03T20:55:47.863Z,79.58
2018-12-03T20:58:16.119Z,79.95
2018-12-03T21:00:44.412Z,80.50
2018-12-03T21:03:12.652Z,81.29
2018-12-03T21:05:40.879Z,81.78
2018-12-03T21:08:09.110Z,81.61
2018-12-03T21:10:37.339Z,82.01
2018-12-03T21:13:05.707Z,81.72
2018-12-03T21:15:34.015Z,81.96
2018-12-03T21:18:02.260Z,81.06
2018-12-03T21:20:30.565Z,81.38
2018-12-03T21:22:58.877Z,80.45
2018-12-03T21:25:27.106Z,80.71
2018-12-03T21:27:55.340Z,79.92
2018-12-03T21:30:23.609Z,79.60
2018-12-03T21:32:57.357Z,79.44
2018-12-03T21:35:25.596Z,79.77
2018-12-03T21:38:00.042Z,79.44
2018-12-03T21:40:30.619Z,79.29
2018-12-03T21:42:59.191Z,78.90
2018-12-03T21:45:27.499Z,79.39
2018-12-03T21:47:55.736Z,77.89
2018-12-03T21:50:24.060Z,77.42
2018-12-03T21:52:52.319Z,77.30
2018-12-03T21:55:20.542Z,77.80
2018-12-03T21:57:48.976Z,78.05
2018-12-03T22:00:18.444Z,78.22
2018-12-03T22:02:46.768Z,77.77
2018-12-03T22:05:14.960Z,78.03
2018-12-03T22:07:43.304Z,78.50
2018-12-03T22:10:11.700Z,78.56
2018-12-03T22:12:39.956Z,78.43
2018-12-03T22:15:08.251Z,79.00
2018-12-03T22:17:36.510Z,79.82
2018-12-03T22:20:07.750Z,81.09
2018-12-03T22:22:36.070Z,81.89
2018-12-03T22:25:04.605Z,81.36
2018-12-03T22:27:32.899Z,80.85
2018-12-03T22:30:01.150Z,80.80
2018-12-03T22:32:29.452Z,80.96
2018-12-03T22:34:57.738Z,79.97
2018-12-03T22:37:26.009Z,79.71
2018-12-03T22:39:54.268Z,79.09
2018-12-03T22:42:22.533Z,78.44
2018-12-03T22:44:50.820Z,78.46
2018-12-03T22:47:19.048Z,77.87
2018-12-03T22:49:47.372Z,76.92
2018-12-03T22:52:15.648Z,77.59
2018-12-03T22:54:44.028Z,76.39
2018-12-03T22:57:12.407Z,75.89
2018-12-03T22:59:40.688Z,75.52
2018-12-03T23:02:09.061Z,74.91
2018-12-03T23:04:38.929Z,73.96
2018-12-03T23:07:07.357Z,73.60
2018-12-03T23:09:35.731Z,72.54
2018-12-03T23:12:04.134Z,72.43
2018-12-03T23:14:32.409Z,72.29
2018-12-03T23:17:00.772Z,71.14
2018-12-03T23:19:29.008Z,71.39
2018-12-03T23:21:57.256Z,70.84
2018-12-03T23:24:25.620Z,70.62
2018-12-03T23:26:53.871Z,70.37
2018-12-03T23:29:22.179Z,70.12
2018-12-03T23:31:50.400Z,70.45
2018-12-03T23:34:18.703Z,69.88
2018-12-03T23:36:46.957Z,70.49
2018-12-03T23:39:15.373Z,70.05
2018-12-03T23:41:43.632Z,69.89
2018-12-03T23:44:11.901Z,70.09
2018-12-03T23:46:40.191Z,70.33
2018-12-03T23:49:08.450Z,69.93
2018-12-03T23:51:36.672Z,69.70
2018-12-03T23:54:04.976Z,70.06
2018-12-03T23:56:33.387Z,70.06
2018-12-03T23:59:01.769Z,69.72
